sensor_id;sensor_type;location;lat;lon;timestamp;pressure;altitude;pressure_sealevel;temperature;humidity
47280;BME280;34064;44.942;0.008;2023-02-22T00:01:42;98798.94;;;15.10;61.00
47280;BME280;34064;44.942;0.008;2023-02-22T00:04:35;98798.94;;;15.10;61.02
47280;BME280;34064;44.942;0.008;2023-02-22T00:07:06;98798.94;;;15.10;61.15
47280;BME280;34064;44.942;0.008;2023-02-22T00:09:34;98793.88;;;15.07;61.07
47280;BME280;34064;44.942;0.008;2023-02-22T00:12:01;98796.25;;;15.10;61.11
47280;BME280;34064;44.942;0.008;2023-02-22T00:14:29;98799.22;;;15.07;61.64
47280;BME280;34064;44.942;0.008;2023-02-22T00:16:56;98799.22;;;15.07;61.40
47280;BME280;34064;44.942;0.008;2023-02-22T00:19:25;98797.56;;;15.06;61.06
47280;BME280;34064;44.942;0.008;2023-02-22T00:21:53;98805.59;;;15.06;61.13
47280;BME280;34064;44.942;0.008;2023-02-22T00:24:20;98802.91;;;15.06;61.23
47280;BME280;34064;44.942;0.008;2023-02-22T00:26:54;98805.59;;;15.06;61.53
47280;BME280;34064;44.942;0.008;2023-02-22T00:29:23;98801.22;;;15.05;61.26
47280;BME280;34064;44.942;0.008;2023-02-22T00:31:51;98804.56;;;15.07;61.42
47280;BME280;34064;44.942;0.008;2023-02-22T00:34:18;98800.22;;;15.06;61.36
47280;BME280;34064;44.942;0.008;2023-02-22T00:36:47;98803.88;;;15.05;61.53
47280;BME280;34064;44.942;0.008;2023-02-22T00:39:15;98808.53;;;15.03;61.41
47280;BME280;34064;44.942;0.008;2023-02-22T00:41:43;98807.69;;;15.02;61.44
47280;BME280;34064;44.942;0.008;2023-02-22T00:44:10;98802.31;;;15.02;61.51
47280;BME280;34064;44.942;0.008;2023-02-22T00:46:38;98801.50;;;15.02;61.85
47280;BME280;34064;44.942;0.008;2023-02-22T00:49:05;98803.47;;;15.00;61.57
47280;BME280;34064;44.942;0.008;2023-02-22T00:51:32;98795.16;;;15.03;61.52
47280;BME280;34064;44.942;0.008;2023-02-22T00:53:59;98797.84;;;15.03;61.60
47280;BME280;34064;44.942;0.008;2023-02-22T00:56:25;98798.97;;;15.00;61.82
47280;BME280;34064;44.942;0.008;2023-02-22T00:58:52;98798.81;;;15.02;61.62
47280;BME280;34064;44.942;0.008;2023-02-22T01:01:20;98804.63;;;14.97;61.81
47280;BME280;34064;44.942;0.008;2023-02-22T01:03:48;98799.81;;;15.01;61.73
47280;BME280;34064;44.942;0.008;2023-02-22T01:06:15;98800.09;;;14.97;61.68
47280;BME280;34064;44.942;0.008;2023-02-22T01:08:44;98805.44;;;14.97;61.91
47280;BME280;34064;44.942;0.008;2023-02-22T01:11:11;98797.72;;;14.94;61.80
47280;BME280;34064;44.942;0.008;2023-02-22T01:13:37;98810.13;;;14.95;62.12
47280;BME280;34064;44.942;0.008;2023-02-22T01:16:04;98804.22;;;14.92;62.03
47280;BME280;34064;44.942;0.008;2023-02-22T01:18:35;98801.53;;;14.92;61.90
47280;BME280;34064;44.942;0.008;2023-02-22T01:21:05;98802.53;;;14.91;62.03
47280;BME280;34064;44.942;0.008;2023-02-22T01:23:33;98803.50;;;14.90;62.18
47280;BME280;34064;44.942;0.008;2023-02-22T01:25:59;98803.63;;;14.88;62.03
47280;BME280;34064;44.942;0.008;2023-02-22T01:28:26;98799.31;;;14.87;62.14
47280;BME280;34064;44.942;0.008;2023-02-22T01:30:57;98804.78;;;14.86;62.13
47280;BME280;34064;44.942;0.008;2023-02-22T01:33:23;98798.88;;;14.82;62.35
47280;BME280;34064;44.942;0.008;2023-02-22T01:35:50;98795.38;;;14.81;62.41
47280;BME280;34064;44.942;0.008;2023-02-22T01:38:17;98793.69;;;14.80;62.29
47280;BME280;34064;44.942;0.008;2023-02-22T01:40:47;98785.25;;;14.75;62.84
47280;BME280;34064;44.942;0.008;2023-02-22T01:43:23;98788.06;;;14.74;62.68
47280;BME280;34064;44.942;0.008;2023-02-22T01:45:57;98789.06;;;14.73;62.62
47280;BME280;34064;44.942;0.008;2023-02-22T01:51:18;98783.41;;;14.66;63.00
47280;BME280;34064;44.942;0.008;2023-02-22T01:59:35;98787.25;;;14.54;63.70
47280;BME280;34064;44.942;0.008;2023-02-22T02:02:03;98785.69;;;14.51;63.75
47280;BME280;34064;44.942;0.008;2023-02-22T02:04:31;98782.47;;;14.47;63.87
47280;BME280;34064;44.942;0.008;2023-02-22T02:07:02;98777.25;;;14.46;63.63
47280;BME280;34064;44.942;0.008;2023-02-22T02:12:10;98761.50;;;14.43;64.13
47280;BME280;34064;44.942;0.008;2023-02-22T02:14:40;98751.38;;;14.46;64.15
47280;BME280;34064;44.942;0.008;2023-02-22T02:17:14;98760.25;;;14.47;64.42
47280;BME280;34064;44.942;0.008;2023-02-22T02:20:06;98760.53;;;14.44;64.35
47280;BME280;34064;44.942;0.008;2023-02-22T02:25:44;98752.78;;;14.41;64.41
47280;BME280;34064;44.942;0.008;2023-02-22T02:29:00;98755.75;;;14.38;64.50
47280;BME280;34064;44.942;0.008;2023-02-22T02:40:29;98750.41;;;14.38;64.42
47280;BME280;34064;44.942;0.008;2023-02-22T02:46:24;98760.25;;;14.37;64.18
47280;BME280;34064;44.942;0.008;2023-02-22T02:48:55;98755.44;;;14.41;64.08
47280;BME280;34064;44.942;0.008;2023-02-22T02:51:28;98749.56;;;14.37;64.29
47280;BME280;34064;44.942;0.008;2023-02-22T02:53:57;98751.25;;;14.38;64.45
47280;BME280;34064;44.942;0.008;2023-02-22T02:56:25;98742.53;;;14.36;64.24
47280;BME280;34064;44.942;0.008;2023-02-22T02:58:53;98742.41;;;14.38;64.08
47280;BME280;34064;44.942;0.008;2023-02-22T03:04:27;98736.91;;;14.39;63.97
47280;BME280;34064;44.942;0.008;2023-02-22T03:07:11;98732.53;;;14.38;63.85
47280;BME280;34064;44.942;0.008;2023-02-22T03:10:19;98735.38;;;14.37;63.73
47280;BME280;34064;44.942;0.008;2023-02-22T03:13:08;98736.34;;;14.35;63.83
47280;BME280;34064;44.942;0.008;2023-02-22T03:21:22;98756.03;;;14.34;63.57
47280;BME280;34064;44.942;0.008;2023-02-22T03:26:49;98755.22;;;14.34;63.60
47280;BME280;34064;44.942;0.008;2023-02-22T03:29:20;98760.69;;;14.32;63.58
47280;BME280;34064;44.942;0.008;2023-02-22T03:31:52;98760.69;;;14.32;63.47
47280;BME280;34064;44.942;0.008;2023-02-22T03:34:37;98761.53;;;14.33;63.48
47280;BME280;34064;44.942;0.008;2023-02-22T03:37:12;98766.16;;;14.31;63.63
47280;BME280;34064;44.942;0.008;2023-02-22T03:39:42;98766.31;;;14.29;63.55
47280;BME280;34064;44.942;0.008;2023-02-22T03:42:21;98760.13;;;14.29;63.55
47280;BME280;34064;44.942;0.008;2023-02-22T03:44:50;98760.97;;;14.29;63.63
47280;BME280;34064;44.942;0.008;2023-02-22T03:47:24;98752.97;;;14.29;63.60
47280;BME280;34064;44.942;0.008;2023-02-22T03:50:02;98750.28;;;14.29;63.74
47280;BME280;34064;44.942;0.008;2023-02-22T03:52:35;98755.47;;;14.31;63.57
47280;BME280;34064;44.942;0.008;2023-02-22T03:55:04;98756.31;;;14.31;63.60
47280;BME280;34064;44.942;0.008;2023-02-22T03:57:43;98756.31;;;14.31;63.62
47280;BME280;34064;44.942;0.008;2023-02-22T04:00:18;98752.66;;;14.32;63.56
47280;BME280;34064;44.942;0.008;2023-02-22T04:02:46;98759.69;;;14.33;63.41
47280;BME280;34064;44.942;0.008;2023-02-22T04:05:13;98754.34;;;14.33;63.52
47280;BME280;34064;44.942;0.008;2023-02-22T04:07:40;98756.19;;;14.33;63.49
47280;BME280;34064;44.942;0.008;2023-02-22T04:10:07;98761.38;;;14.34;63.39
47280;BME280;34064;44.942;0.008;2023-02-22T04:12:35;98766.72;;;14.34;63.48
47280;BME280;34064;44.942;0.008;2023-02-22T04:15:03;98771.25;;;14.34;63.64
47280;BME280;34064;44.942;0.008;2023-02-22T04:17:30;98759.69;;;14.33;63.68
47280;BME280;34064;44.942;0.008;2023-02-22T04:19:56;98758.72;;;14.34;63.50
47280;BME280;34064;44.942;0.008;2023-02-22T04:22:23;98759.69;;;14.33;63.80
47280;BME280;34064;44.942;0.008;2023-02-22T04:24:49;98769.56;;;14.33;63.77
47280;BME280;34064;44.942;0.008;2023-02-22T04:27:16;98763.34;;;14.32;63.83
47280;BME280;34064;44.942;0.008;2023-02-22T04:29:42;98764.31;;;14.31;63.82
47280;BME280;34064;44.942;0.008;2023-02-22T04:32:09;98773.19;;;14.32;63.81
47280;BME280;34064;44.942;0.008;2023-02-22T04:34:35;98770.53;;;14.32;63.78
47280;BME280;34064;44.942;0.008;2023-02-22T04:37:01;98766.16;;;14.31;63.93
47280;BME280;34064;44.942;0.008;2023-02-22T04:39:28;98769.66;;;14.31;63.71
47280;BME280;34064;44.942;0.008;2023-02-22T04:41:55;98767.72;;;14.33;63.78
47280;BME280;34064;44.942;0.008;2023-02-22T04:44:22;98770.69;;;14.30;63.80
47280;BME280;34064;44.942;0.008;2023-02-22T04:46:48;98774.34;;;14.29;63.77
47280;BME280;34064;44.942;0.008;2023-02-22T04:49:15;98770.69;;;14.30;63.92
47280;BME280;34064;44.942;0.008;2023-02-22T04:51:44;98770.81;;;14.29;63.83
47280;BME280;34064;44.942;0.008;2023-02-22T04:54:11;98772.66;;;14.28;63.83
47280;BME280;34064;44.942;0.008;2023-02-22T04:56:38;98764.63;;;14.28;63.80
47280;BME280;34064;44.942;0.008;2023-02-22T04:59:05;98769.97;;;14.28;63.82
47280;BME280;34064;44.942;0.008;2023-02-22T05:01:32;98769.13;;;14.28;63.89
47280;BME280;34064;44.942;0.008;2023-02-22T05:04:01;98769.97;;;14.28;63.73
47280;BME280;34064;44.942;0.008;2023-02-22T05:06:28;98771.78;;;14.28;63.87
47280;BME280;34064;44.942;0.008;2023-02-22T05:08:54;98758.59;;;14.26;64.09
47280;BME280;34064;44.942;0.008;2023-02-22T05:11:21;98763.09;;;14.26;63.95
47280;BME280;34064;44.942;0.008;2023-02-22T05:13:47;98755.19;;;14.24;63.94
47280;BME280;34064;44.942;0.008;2023-02-22T05:16:14;98758.03;;;14.23;63.96
47280;BME280;34064;44.942;0.008;2023-02-22T05:18:41;98765.19;;;14.22;64.09
47280;BME280;34064;44.942;0.008;2023-02-22T05:21:08;98764.34;;;14.22;63.92
47280;BME280;34064;44.942;0.008;2023-02-22T05:23:34;98763.66;;;14.19;64.09
47280;BME280;34064;44.942;0.008;2023-02-22T05:26:01;98762.81;;;14.19;63.81
47280;BME280;34064;44.942;0.008;2023-02-22T05:28:28;98766.47;;;14.18;63.77
47280;BME280;34064;44.942;0.008;2023-02-22T05:30:54;98770.81;;;14.19;63.80
47280;BME280;34064;44.942;0.008;2023-02-22T05:33:21;98775.47;;;14.17;63.95
47280;BME280;34064;44.942;0.008;2023-02-22T05:35:48;98776.44;;;14.16;64.05
47280;BME280;34064;44.942;0.008;2023-02-22T05:38:15;98775.72;;;14.14;64.10
47280;BME280;34064;44.942;0.008;2023-02-22T05:40:42;98777.72;;;14.12;64.07
47280;BME280;34064;44.942;0.008;2023-02-22T05:43:09;98774.19;;;14.11;64.15
47280;BME280;34064;44.942;0.008;2023-02-22T05:45:36;98782.22;;;14.11;64.18
47280;BME280;34064;44.942;0.008;2023-02-22T05:48:07;98776.03;;;14.11;64.18
47280;BME280;34064;44.942;0.008;2023-02-22T05:50:37;98775.06;;;14.12;64.36
47280;BME280;34064;44.942;0.008;2023-02-22T05:53:05;98774.91;;;14.13;64.45
47280;BME280;34064;44.942;0.008;2023-02-22T05:55:32;98767.03;;;14.12;64.66
47280;BME280;34064;44.942;0.008;2023-02-22T05:58:00;98767.03;;;14.12;64.52
47280;BME280;34064;44.942;0.008;2023-02-22T06:00:29;98765.34;;;14.11;64.74
47280;BME280;34064;44.942;0.008;2023-02-22T06:03:05;98762.53;;;14.12;64.85
47280;BME280;34064;44.942;0.008;2023-02-22T06:05:33;98758.00;;;14.13;64.60
47280;BME280;34064;44.942;0.008;2023-02-22T06:08:02;98754.53;;;14.12;64.58
47280;BME280;34064;44.942;0.008;2023-02-22T06:10:30;98755.22;;;14.14;64.56
47280;BME280;34064;44.942;0.008;2023-02-22T06:13:02;98749.03;;;14.14;64.68
47280;BME280;34064;44.942;0.008;2023-02-22T06:15:30;98751.69;;;14.14;64.83
47280;BME280;34064;44.942;0.008;2023-02-22T06:17:59;98751.69;;;14.14;64.98
47280;BME280;34064;44.942;0.008;2023-02-22T06:20:28;98750.72;;;14.15;64.62
47280;BME280;34064;44.942;0.008;2023-02-22T06:22:57;98746.34;;;14.14;65.34
47280;BME280;34064;44.942;0.008;2023-02-22T06:25:27;98745.38;;;14.15;64.77
47280;BME280;34064;44.942;0.008;2023-02-22T06:27:58;98739.19;;;14.14;64.83
47280;BME280;34064;44.942;0.008;2023-02-22T06:30:27;98742.00;;;14.13;64.70
47280;BME280;34064;44.942;0.008;2023-02-22T06:32:55;98745.38;;;14.15;64.64
47280;BME280;34064;44.942;0.008;2023-02-22T06:35:23;98742.44;;;14.18;64.86
47280;BME280;34064;44.942;0.008;2023-02-22T06:37:51;98736.38;;;14.16;64.77
47280;BME280;34064;44.942;0.008;2023-02-22T06:40:18;98742.84;;;14.13;64.88
47280;BME280;34064;44.942;0.008;2023-02-22T06:42:48;98741.00;;;14.14;64.92
47280;BME280;34064;44.942;0.008;2023-02-22T06:45:16;98745.69;;;14.12;64.99
47280;BME280;34064;44.942;0.008;2023-02-22T06:47:43;98743.28;;;14.09;65.02
47280;BME280;34064;44.942;0.008;2023-02-22T06:50:23;98750.16;;;14.11;65.01
47280;BME280;34064;44.942;0.008;2023-02-22T06:52:51;98748.47;;;14.10;65.13
47280;BME280;34064;44.942;0.008;2023-02-22T06:55:21;98748.47;;;14.10;65.33
47280;BME280;34064;44.942;0.008;2023-02-22T06:57:48;98740.44;;;14.10;65.10
47280;BME280;34064;44.942;0.008;2023-02-22T07:00:18;98735.97;;;14.11;65.00
47280;BME280;34064;44.942;0.008;2023-02-22T07:02:45;98737.66;;;14.12;65.33
47280;BME280;34064;44.942;0.008;2023-02-22T07:05:14;98743.00;;;14.12;65.29
47280;BME280;34064;44.942;0.008;2023-02-22T07:07:40;98742.00;;;14.13;64.90
47280;BME280;34064;44.942;0.008;2023-02-22T07:10:14;98745.53;;;14.13;64.95
47280;BME280;34064;44.942;0.008;2023-02-22T07:12:40;98738.34;;;14.14;65.23
47280;BME280;34064;44.942;0.008;2023-02-22T07:15:07;98741.00;;;14.14;65.26
47280;BME280;34064;44.942;0.008;2023-02-22T07:17:33;98745.38;;;14.15;65.14
47280;BME280;34064;44.942;0.008;2023-02-22T07:19:59;98749.03;;;14.14;65.29
47280;BME280;34064;44.942;0.008;2023-02-22T07:22:26;98749.72;;;14.16;65.28
47280;BME280;34064;44.942;0.008;2023-02-22T07:24:52;98751.56;;;14.15;65.51
47280;BME280;34064;44.942;0.008;2023-02-22T07:27:20;98750.72;;;14.15;65.66
47280;BME280;34064;44.942;0.008;2023-02-22T07:29:47;98759.72;;;14.14;65.71
47280;BME280;34064;44.942;0.008;2023-02-22T07:32:14;98764.06;;;14.15;65.81
47280;BME280;34064;44.942;0.008;2023-02-22T07:34:41;98759.72;;;14.14;65.63
47280;BME280;34064;44.942;0.008;2023-02-22T07:37:08;98754.38;;;14.14;65.76
47280;BME280;34064;44.942;0.008;2023-02-22T07:39:34;98754.91;;;14.17;65.91
47280;BME280;34064;44.942;0.008;2023-02-22T07:42:03;98759.44;;;14.17;65.72
47280;BME280;34064;44.942;0.008;2023-02-22T07:44:30;98759.59;;;14.15;66.10
47280;BME280;34064;44.942;0.008;2023-02-22T07:46:56;98753.09;;;14.18;65.78
47280;BME280;34064;44.942;0.008;2023-02-22T07:49:22;98758.44;;;14.18;66.25
47280;BME280;34064;44.942;0.008;2023-02-22T07:51:49;98760.84;;;14.21;66.10
47280;BME280;34064;44.942;0.008;2023-02-22T07:54:15;98756.50;;;14.20;65.97
47280;BME280;34064;44.942;0.008;2023-02-22T07:56:46;98756.19;;;14.23;65.86
47280;BME280;34064;44.942;0.008;2023-02-22T07:59:13;98751.56;;;14.25;66.22
47280;BME280;34064;44.942;0.008;2023-02-22T08:01:40;98756.88;;;14.25;66.06
47280;BME280;34064;44.942;0.008;2023-02-22T08:04:06;98758.59;;;14.26;66.23
47280;BME280;34064;44.942;0.008;2023-02-22T08:06:32;98758.31;;;14.29;66.23
47280;BME280;34064;44.942;0.008;2023-02-22T08:08:59;98759.13;;;14.30;66.03
47280;BME280;34064;44.942;0.008;2023-02-22T08:11:26;98758.31;;;14.29;66.21
47280;BME280;34064;44.942;0.008;2023-02-22T08:13:52;98756.31;;;14.31;66.23
47280;BME280;34064;44.942;0.008;2023-02-22T08:16:21;98760.56;;;14.34;66.30
47280;BME280;34064;44.942;0.008;2023-02-22T08:18:47;98764.06;;;14.34;66.35
47280;BME280;34064;44.942;0.008;2023-02-22T08:21:14;98755.75;;;14.38;66.68
47280;BME280;34064;44.942;0.008;2023-02-22T08:23:40;98762.09;;;14.37;66.46
47280;BME280;34064;44.942;0.008;2023-02-22T08:26:09;98760.78;;;14.41;66.66
47280;BME280;34064;44.942;0.008;2023-02-22T08:28:40;98761.09;;;14.38;67.01
47280;BME280;34064;44.942;0.008;2023-02-22T08:31:19;98766.16;;;14.41;66.75
47280;BME280;34064;44.942;0.008;2023-02-22T08:33:47;98774.31;;;14.39;67.22
47280;BME280;34064;44.942;0.008;2023-02-22T08:36:15;98770.38;;;14.43;66.78
47280;BME280;34064;44.942;0.008;2023-02-22T08:38:41;98767.00;;;14.41;67.18
47280;BME280;34064;44.942;0.008;2023-02-22T08:41:07;98771.22;;;14.44;67.06
47280;BME280;34064;44.942;0.008;2023-02-22T08:43:34;98764.88;;;14.45;66.97
47280;BME280;34064;44.942;0.008;2023-02-22T08:46:00;98761.94;;;14.48;66.87
47280;BME280;34064;44.942;0.008;2023-02-22T08:48:27;98759.94;;;14.50;67.04
47280;BME280;34064;44.942;0.008;2023-02-22T08:50:53;98763.03;;;14.55;67.16
47280;BME280;34064;44.942;0.008;2023-02-22T08:53:20;98761.91;;;14.58;67.24
47280;BME280;34064;44.942;0.008;2023-02-22T08:55:46;98756.56;;;14.58;67.26
47280;BME280;34064;44.942;0.008;2023-02-22T08:58:12;98765.28;;;14.60;67.41
47280;BME280;34064;44.942;0.008;2023-02-22T09:00:40;98756.97;;;14.63;67.22
47280;BME280;34064;44.942;0.008;2023-02-22T09:03:08;98756.56;;;14.68;67.52
47280;BME280;34064;44.942;0.008;2023-02-22T09:05:35;98752.91;;;14.69;67.37
47280;BME280;34064;44.942;0.008;2023-02-22T09:08:02;98755.59;;;14.69;67.35
47280;BME280;34064;44.942;0.008;2023-02-22T09:10:31;98747.25;;;14.72;67.49
47280;BME280;34064;44.942;0.008;2023-02-22T09:12:58;98750.91;;;14.71;67.37
47280;BME280;34064;44.942;0.008;2023-02-22T09:15:26;98751.78;;;14.71;67.25
47280;BME280;34064;44.942;0.008;2023-02-22T09:17:53;98751.78;;;14.71;67.32
47280;BME280;34064;44.942;0.008;2023-02-22T09:20:21;98742.63;;;14.74;67.22
47280;BME280;34064;44.942;0.008;2023-02-22T09:22:48;98741.34;;;14.78;67.31
47280;BME280;34064;44.942;0.008;2023-02-22T09:25:15;98743.00;;;14.79;67.67
47280;BME280;34064;44.942;0.008;2023-02-22T09:27:42;98742.72;;;14.82;67.40
47280;BME280;34064;44.942;0.008;2023-02-22T09:30:25;98736.94;;;14.87;67.42
47280;BME280;34064;44.942;0.008;2023-02-22T09:32:53;98738.47;;;14.89;67.69
47280;BME280;34064;44.942;0.008;2023-02-22T09:35:20;98738.19;;;14.92;67.45
47280;BME280;34064;44.942;0.008;2023-02-22T09:37:55;98735.34;;;14.94;67.58
47280;BME280;34064;44.942;0.008;2023-02-22T09:40:23;98736.22;;;14.94;67.56
47280;BME280;34064;44.942;0.008;2023-02-22T09:48:28;98725.91;;;15.00;67.45
47280;BME280;34064;44.942;0.008;2023-02-22T09:50:59;98731.78;;;15.03;67.60
47280;BME280;34064;44.942;0.008;2023-02-22T09:53:41;98720.38;;;15.11;67.47
47280;BME280;34064;44.942;0.008;2023-02-22T09:56:13;98720.06;;;15.14;67.63
47280;BME280;34064;44.942;0.008;2023-02-22T10:04:21;98723.09;;;15.29;67.56
47280;BME280;34064;44.942;0.008;2023-02-22T10:07:14;98712.94;;;15.33;67.53
47280;BME280;34064;44.942;0.008;2023-02-22T10:09:45;98719.28;;;15.32;67.33
47280;BME280;34064;44.942;0.008;2023-02-22T10:12:29;98720.94;;;15.33;67.48
47280;BME280;34064;44.942;0.008;2023-02-22T10:18:00;98716.59;;;15.32;67.48
47280;BME280;34064;44.942;0.008;2023-02-22T10:20:51;98721.94;;;15.32;67.56
47280;BME280;34064;44.942;0.008;2023-02-22T10:23:32;98725.44;;;15.32;67.49
47280;BME280;34064;44.942;0.008;2023-02-22T10:28:53;98720.94;;;15.33;67.45
47280;BME280;34064;44.942;0.008;2023-02-22T10:31:31;98728.13;;;15.32;67.86
47280;BME280;34064;44.942;0.008;2023-02-22T10:34:13;98729.69;;;15.35;67.75
47280;BME280;34064;44.942;0.008;2023-02-22T10:36:41;98723.31;;;15.36;67.81
47280;BME280;34064;44.942;0.008;2023-02-22T10:41:57;98722.56;;;15.43;67.72
47280;BME280;34064;44.942;0.008;2023-02-22T10:44:33;98722.28;;;15.47;67.73
47280;BME280;34064;44.942;0.008;2023-02-22T10:47:02;98718.81;;;15.54;67.77
47280;BME280;34064;44.942;0.008;2023-02-22T10:49:46;98711.50;;;15.56;67.66
47280;BME280;34064;44.942;0.008;2023-02-22T10:52:25;98720.22;;;15.58;67.64
47280;BME280;34064;44.942;0.008;2023-02-22T10:54:55;98707.97;;;15.56;67.58
47280;BME280;34064;44.942;0.008;2023-02-22T10:57:26;98714.69;;;15.60;67.61
47280;BME280;34064;44.942;0.008;2023-02-22T10:59:53;98705.53;;;15.63;67.49
47280;BME280;34064;44.942;0.008;2023-02-22T11:02:33;98698.88;;;15.67;67.65
47280;BME280;34064;44.942;0.008;2023-02-22T11:05:03;98700.47;;;15.78;67.70
47280;BME280;34064;44.942;0.008;2023-02-22T11:07:34;98684.38;;;15.87;67.42
47280;BME280;34064;44.942;0.008;2023-02-22T11:10:03;98686.81;;;15.99;67.55
47280;BME280;34064;44.942;0.008;2023-02-22T11:12:33;98684.72;;;16.11;67.42
47280;BME280;34064;44.942;0.008;2023-02-22T11:17:55;98673.75;;;16.22;67.03
47280;BME280;34064;44.942;0.008;2023-02-22T11:20:26;98668.97;;;16.34;66.93
47280;BME280;34064;44.942;0.008;2023-02-22T11:22:57;98664.63;;;16.41;66.66
47280;BME280;34064;44.942;0.008;2023-02-22T11:25:29;98653.31;;;16.47;66.89
47280;BME280;34064;44.942;0.008;2023-02-22T11:28:10;98658.53;;;16.57;66.54
47280;BME280;34064;44.942;0.008;2023-02-22T11:30:40;98654.38;;;16.63;66.23
47280;BME280;34064;44.942;0.008;2023-02-22T11:36:01;98637.00;;;16.75;66.22
47280;BME280;34064;44.942;0.008;2023-02-22T11:38:32;98637.38;;;16.89;66.17
47280;BME280;34064;44.942;0.008;2023-02-22T11:41:29;98627.34;;;16.91;65.71
47280;BME280;34064;44.942;0.008;2023-02-22T11:44:24;98621.34;;;16.97;65.86
47280;BME280;34064;44.942;0.008;2023-02-22T11:46:53;98617.16;;;17.03;65.51
47280;BME280;34064;44.942;0.008;2023-02-22T11:49:23;98618.03;;;17.11;64.96
47280;BME280;34064;44.942;0.008;2023-02-22T12:00:57;98613.47;;;17.04;64.73
47280;BME280;34064;44.942;0.008;2023-02-22T12:17:20;98628.94;;;16.32;65.22
47280;BME280;34064;44.942;0.008;2023-02-22T12:22:34;98649.09;;;16.18;65.71
47280;BME280;34064;44.942;0.008;2023-02-22T12:25:15;98644.06;;;16.15;66.07
47280;BME280;34064;44.942;0.008;2023-02-22T12:27:56;98632.03;;;16.19;66.05
47280;BME280;34064;44.942;0.008;2023-02-22T12:30:26;98631.09;;;16.29;66.31
47280;BME280;34064;44.942;0.008;2023-02-22T12:33:02;98623.22;;;16.35;66.19
47280;BME280;34064;44.942;0.008;2023-02-22T12:35:36;98620.28;;;16.47;65.87
47280;BME280;34064;44.942;0.008;2023-02-22T12:38:19;98615.44;;;16.50;65.83
47280;BME280;34064;44.942;0.008;2023-02-22T12:43:33;98598.75;;;16.65;65.80
47280;BME280;34064;44.942;0.008;2023-02-22T12:46:12;98602.13;;;16.67;65.46
47280;BME280;34064;44.942;0.008;2023-02-22T13:00:04;98576.91;;;17.03;65.40
47280;BME280;34064;44.942;0.008;2023-02-22T13:02:53;98573.41;;;17.02;64.92
47280;BME280;34064;44.942;0.008;2023-02-22T13:05:22;98571.22;;;16.97;63.93
47280;BME280;34064;44.942;0.008;2023-02-22T13:11:22;98576.34;;;16.82;64.80
47280;BME280;34064;44.942;0.008;2023-02-22T13:14:13;98574.00;;;16.88;64.61
47280;BME280;34064;44.942;0.008;2023-02-22T13:19:35;98576.53;;;16.89;63.78
47280;BME280;34064;44.942;0.008;2023-02-22T13:22:15;98571.31;;;16.88;64.42
47280;BME280;34064;44.942;0.008;2023-02-22T13:30:00;98567.81;;;16.87;64.42
47280;BME280;34064;44.942;0.008;2023-02-22T13:32:59;98579.03;;;16.91;64.52
47280;BME280;34064;44.942;0.008;2023-02-22T13:46:54;98547.59;;;17.26;63.78
47280;BME280;34064;44.942;0.008;2023-02-22T13:49:39;98545.59;;;17.28;63.70
47280;BME280;34064;44.942;0.008;2023-02-22T13:52:11;98550.28;;;17.26;63.51
47280;BME280;34064;44.942;0.008;2023-02-22T13:54:54;98547.94;;;17.23;63.69
47280;BME280;34064;44.942;0.008;2023-02-22T13:57:25;98541.41;;;17.25;63.44
47280;BME280;34064;44.942;0.008;2023-02-22T14:03:03;98544.91;;;17.18;63.79
47280;BME280;34064;44.942;0.008;2023-02-22T14:10:59;98542.53;;;17.14;62.69
47280;BME280;34064;44.942;0.008;2023-02-22T14:13:28;98542.22;;;17.09;62.66
47280;BME280;34064;44.942;0.008;2023-02-22T14:22:14;98548.75;;;16.98;63.04
47280;BME280;34064;44.942;0.008;2023-02-22T14:24:50;98542.22;;;17.01;62.96
47280;BME280;34064;44.942;0.008;2023-02-22T14:27:17;98545.91;;;17.00;62.54
47280;BME280;34064;44.942;0.008;2023-02-22T14:29:56;98551.06;;;16.93;62.45
47280;BME280;34064;44.942;0.008;2023-02-22T14:32:45;98546.56;;;16.94;62.27
47280;BME280;34064;44.942;0.008;2023-02-22T14:35:16;98552.53;;;16.88;62.47
47280;BME280;34064;44.942;0.008;2023-02-22T14:37:48;98559.06;;;16.85;62.83
47280;BME280;34064;44.942;0.008;2023-02-22T14:40:33;98551.72;;;16.87;62.53
47280;BME280;34064;44.942;0.008;2023-02-22T14:43:09;98560.06;;;16.84;62.36
47280;BME280;34064;44.942;0.008;2023-02-22T14:46:01;98555.38;;;16.86;61.68
47280;BME280;34064;44.942;0.008;2023-02-22T14:48:40;98566.94;;;16.87;61.31
47280;BME280;34064;44.942;0.008;2023-02-22T14:51:14;98549.19;;;16.86;61.36
47280;BME280;34064;44.942;0.008;2023-02-22T14:53:45;98552.88;;;16.84;61.86
47280;BME280;34064;44.942;0.008;2023-02-22T14:56:22;98558.75;;;16.88;62.01
47280;BME280;34064;44.942;0.008;2023-02-22T14:59:17;98569.47;;;16.80;62.01
47280;BME280;34064;44.942;0.008;2023-02-22T15:01:44;98564.25;;;16.78;61.95
47280;BME280;34064;44.942;0.008;2023-02-22T15:04:29;98568.59;;;16.71;62.13
47280;BME280;34064;44.942;0.008;2023-02-22T15:06:59;98569.59;;;16.70;61.70
47280;BME280;34064;44.942;0.008;2023-02-22T15:09:31;98582.63;;;16.57;61.50
47280;BME280;34064;44.942;0.008;2023-02-22T15:14:33;98590.22;;;16.35;62.54
47280;BME280;34064;44.942;0.008;2023-02-22T15:17:20;98603.59;;;16.27;62.91
47280;BME280;34064;44.942;0.008;2023-02-22T15:19:52;98604.84;;;16.14;63.45
47280;BME280;34064;44.942;0.008;2023-02-22T15:22:31;98604.63;;;16.08;63.76
47280;BME280;34064;44.942;0.008;2023-02-22T15:25:07;98602.44;;;16.03;63.88
47280;BME280;34064;44.942;0.008;2023-02-22T15:27:36;98596.25;;;16.02;63.98
47280;BME280;34064;44.942;0.008;2023-02-22T15:30:19;98598.88;;;15.94;64.16
47280;BME280;34064;44.942;0.008;2023-02-22T15:32:47;98604.38;;;15.93;64.31
47280;BME280;34064;44.942;0.008;2023-02-22T15:40:27;98596.34;;;15.93;64.10
47280;BME280;34064;44.942;0.008;2023-02-22T15:43:03;98593.00;;;15.90;64.35
47280;BME280;34064;44.942;0.008;2023-02-22T15:45:30;98595.97;;;15.87;64.07
47280;BME280;34064;44.942;0.008;2023-02-22T15:47:57;98597.13;;;15.85;63.93
47280;BME280;34064;44.942;0.008;2023-02-22T15:50:29;98591.63;;;15.86;63.95